首页
METAR-TAF:

METAR-TAF

机场 :

費耶特維爾, 北卡罗来纳州, 美国

纬度: 34-59-22N, 经度: 078-52-48W, 海拔: 57米

当前天气观测

该预报发布于42分钟前的15:53 UTC
静风
温度 11°C
湿度 47%
气压 1024 hPa
能見度: 16.1公里
天空无云

METAR: KFAY 211553Z 00000KT 10SM CLR 11/00 A3025 RMK AO2 SLP237 T01110000

时间: 11:35 (16:35 UTC)

预报

该预报发布于5小时和0分钟前的11:35 UTC
预报有效从21日的 12点(UTC)到 22日的 12点(UTC)
风速5节,风向多变
能見度: 10公里
天空无云

TAF: KFAY 211135Z 2112/2212 VRB05KT P6SM SKC

超过4000个机场的气象观测和天气预报(METAR&TAF报告)。

可查询的气象台以黄色和红色小点在地图上表示。

将鼠标移到小点上方,可查看气象台名称。

然后点击查看天气观测和预报。

如需切换地图:点击带黑十字的绿色按钮放大地图;点击带横线的绿色按钮缩小地图;或者点击绿色箭头查看邻近地区的地图。


METAR-TAF: